createdAt,value
2017-07-20T00:01:51.913Z,99.90
2017-07-20T00:04:19.757Z,99.90
2017-07-20T00:06:48.293Z,99.90
2017-07-20T00:09:16.100Z,99.90
2017-07-20T00:11:43.858Z,99.90
2017-07-20T00:14:12.384Z,99.90
2017-07-20T00:16:40.173Z,99.90
2017-07-20T00:19:07.929Z,99.90
2017-07-20T00:21:35.748Z,99.90
2017-07-20T00:24:03.504Z,99.90
2017-07-20T00:26:31.259Z,99.90
2017-07-20T00:28:59.058Z,99.90
2017-07-20T00:31:26.816Z,99.90
2017-07-20T00:33:54.626Z,99.90
2017-07-20T00:36:23.142Z,99.90
2017-07-20T00:38:50.901Z,99.90
2017-07-20T00:41:18.685Z,99.90
2017-07-20T00:43:46.456Z,99.90
2017-07-20T00:46:14.264Z,99.90
2017-07-20T00:48:42.016Z,99.90
2017-07-20T00:51:10.528Z,99.90
2017-07-20T00:53:38.318Z,99.90
2017-07-20T00:56:06.070Z,99.90
2017-07-20T00:58:33.880Z,99.90
2017-07-20T01:01:02.397Z,99.90
2017-07-20T01:03:30.152Z,99.90
2017-07-20T01:05:57.943Z,99.90
2017-07-20T01:08:25.692Z,99.90
2017-07-20T01:10:53.504Z,99.90
2017-07-20T01:13:22.028Z,99.90
2017-07-20T01:15:49.779Z,99.90
2017-07-20T01:18:17.572Z,99.90
2017-07-20T01:20:45.324Z,99.90
2017-07-20T01:23:13.135Z,99.90
2017-07-20T01:25:40.885Z,99.90
2017-07-20T01:28:08.636Z,99.90
2017-07-20T01:30:36.426Z,99.90
2017-07-20T01:33:04.192Z,99.90
2017-07-20T01:35:32.002Z,99.90
2017-07-20T01:37:59.777Z,99.90
2017-07-20T01:40:27.541Z,99.90
2017-07-20T01:42:55.323Z,99.90
2017-07-20T01:45:23.859Z,99.90
2017-07-20T01:47:51.701Z,99.90
2017-07-20T01:50:19.455Z,99.90
2017-07-20T01:52:47.203Z,99.90
2017-07-20T01:55:15.003Z,99.90
2017-07-20T01:57:42.758Z,99.90
2017-07-20T02:00:10.580Z,99.90
2017-07-20T02:02:39.121Z,99.90
2017-07-20T02:05:06.911Z,99.90
2017-07-20T02:07:35.459Z,99.90
2017-07-20T02:10:03.214Z,99.90
2017-07-20T02:12:31.027Z,99.90
2017-07-20T02:14:59.546Z,99.90
2017-07-20T02:17:27.300Z,99.90
2017-07-20T02:19:55.112Z,99.90
2017-07-20T02:22:22.863Z,99.90
2017-07-20T02:24:50.676Z,99.90
2017-07-20T02:27:18.422Z,99.90
2017-07-20T02:29:46.171Z,99.90
2017-07-20T02:32:14.859Z,99.90
2017-07-20T02:34:42.613Z,99.90
2017-07-20T02:37:11.184Z,99.90
2017-07-20T02:39:38.942Z,99.90
2017-07-20T02:42:07.468Z,99.90
2017-07-20T02:44:35.256Z,99.90
2017-07-20T02:47:03.000Z,99.90
2017-07-20T02:49:30.818Z,99.90
2017-07-20T02:51:58.569Z,99.90
2017-07-20T02:54:26.311Z,99.90
2017-07-20T02:56:54.091Z,99.90
2017-07-20T02:59:21.856Z,99.90
2017-07-20T03:01:49.664Z,99.90
2017-07-20T03:04:17.420Z,99.90
2017-07-20T03:06:45.176Z,99.90
2017-07-20T03:09:12.975Z,99.90
2017-07-20T03:11:40.725Z,99.90
2017-07-20T03:14:08.541Z,99.90
2017-07-20T03:16:37.059Z,99.90
2017-07-20T03:19:04.817Z,99.90
2017-07-20T03:21:32.673Z,99.90
2017-07-20T03:24:00.434Z,99.90
2017-07-20T03:26:28.446Z,99.90
2017-07-20T03:28:56.196Z,99.90
2017-07-20T03:31:23.952Z,99.90
2017-07-20T03:33:51.736Z,99.90
2017-07-20T03:36:19.503Z,99.90
2017-07-20T03:38:48.093Z,99.90
2017-07-20T03:41:16.611Z,99.90
2017-07-20T03:43:44.368Z,99.90
2017-07-20T03:46:12.161Z,99.10
2017-07-20T03:48:39.925Z,98.10
2017-07-20T03:51:07.744Z,98.80
2017-07-20T03:53:35.517Z,99.00
2017-07-20T03:56:03.276Z,99.50
2017-07-20T03:58:31.073Z,99.70
2017-07-20T04:00:58.829Z,99.30
2017-07-20T04:03:26.647Z,99.60
2017-07-20T04:05:54.399Z,99.90
2017-07-20T04:08:22.921Z,99.50
2017-07-20T04:10:50.710Z,99.50
2017-07-20T04:13:18.473Z,99.70
2017-07-20T04:15:46.290Z,97.10
2017-07-20T04:18:14.053Z,93.40
2017-07-20T04:20:41.814Z,91.50
2017-07-20T04:23:09.607Z,86.50
2017-07-20T04:25:37.395Z,82.90
2017-07-20T04:28:05.200Z,80.00
2017-07-20T04:30:32.954Z,75.20
2017-07-20T04:33:00.721Z,69.40
2017-07-20T04:35:28.505Z,67.10
2017-07-20T04:37:56.289Z,69.20
2017-07-20T04:40:24.115Z,68.70
2017-07-20T04:42:51.873Z,71.10
2017-07-20T04:45:19.673Z,73.70
2017-07-20T04:47:48.638Z,75.90
2017-07-20T04:50:17.229Z,76.00
2017-07-20T04:52:45.032Z,76.60
2017-07-20T04:55:12.785Z,73.10
2017-07-20T04:57:40.539Z,71.50
2017-07-20T05:00:09.142Z,69.20
2017-07-20T05:02:36.913Z,62.90
2017-07-20T05:05:04.722Z,58.80
2017-07-20T05:07:32.788Z,56.60
2017-07-20T05:10:00.557Z,55.20
2017-07-20T05:12:28.343Z,54.10
2017-07-20T05:14:56.099Z,52.30
2017-07-20T05:17:23.912Z,50.40
2017-07-20T05:19:51.670Z,49.10
2017-07-20T05:22:19.416Z,47.20
2017-07-20T05:24:47.483Z,45.80
2017-07-20T05:27:15.936Z,42.20
2017-07-20T05:29:44.526Z,39.50
2017-07-20T05:32:12.303Z,39.20
2017-07-20T05:34:40.063Z,37.00
2017-07-20T05:37:07.861Z,36.30
2017-07-20T05:39:35.620Z,34.40
2017-07-20T05:42:03.458Z,32.20
2017-07-20T05:44:32.129Z,30.60
2017-07-20T05:47:00.645Z,30.10
2017-07-20T05:49:28.438Z,30.20
2017-07-20T05:51:56.198Z,30.90
2017-07-20T05:54:24.023Z,33.40
2017-07-20T05:56:51.789Z,33.90
2017-07-20T05:59:19.556Z,33.00
2017-07-20T06:01:47.415Z,30.00
2017-07-20T06:04:15.160Z,29.10
2017-07-20T06:06:43.009Z,26.90
2017-07-20T06:09:10.781Z,27.00
2017-07-20T06:11:38.572Z,26.20
2017-07-20T06:14:06.369Z,25.10
2017-07-20T06:16:34.132Z,24.50
2017-07-20T06:19:01.953Z,24.10
2017-07-20T06:21:29.726Z,24.80
2017-07-20T06:23:57.485Z,24.00
2017-07-20T06:26:25.274Z,23.10
2017-07-20T06:28:53.033Z,22.30
2017-07-20T06:31:20.833Z,22.40
2017-07-20T06:33:48.600Z,21.80
2017-07-20T06:36:16.402Z,22.20
2017-07-20T06:38:44.179Z,22.20
2017-07-20T06:41:11.936Z,22.20
2017-07-20T06:43:39.786Z,22.00
2017-07-20T06:46:07.536Z,22.30
2017-07-20T06:48:35.292Z,21.70
2017-07-20T06:51:03.077Z,20.90
2017-07-20T06:53:30.825Z,20.50
2017-07-20T06:55:58.625Z,19.50
2017-07-20T06:58:26.385Z,18.70
2017-07-20T07:00:54.890Z,16.60
2017-07-20T07:03:22.665Z,16.60
2017-07-20T07:05:50.400Z,17.40
2017-07-20T07:08:18.965Z,15.10
2017-07-20T07:10:46.701Z,15.00
2017-07-20T07:13:14.444Z,15.80
2017-07-20T07:15:42.221Z,16.80
2017-07-20T07:18:09.966Z,15.70
2017-07-20T07:20:37.775Z,16.40
2017-07-20T07:23:06.285Z,17.10
2017-07-20T07:25:34.028Z,17.20
2017-07-20T07:28:02.565Z,17.80
2017-07-20T07:30:30.307Z,17.80
2017-07-20T07:32:58.136Z,17.10
2017-07-20T07:35:25.877Z,15.80
2017-07-20T07:37:53.624Z,15.40
2017-07-20T07:40:21.425Z,15.30
2017-07-20T07:42:49.160Z,14.80
2017-07-20T07:45:17.728Z,14.40
2017-07-20T07:47:45.463Z,14.40
2017-07-20T07:50:13.204Z,15.60
2017-07-20T07:52:40.990Z,15.70
2017-07-20T07:55:08.739Z,15.30
2017-07-20T07:57:36.538Z,15.40
2017-07-20T08:00:04.280Z,15.00
2017-07-20T08:02:32.039Z,14.30
2017-07-20T08:04:59.807Z,13.90
2017-07-20T08:07:27.547Z,14.20
2017-07-20T08:09:55.353Z,13.30
2017-07-20T08:12:23.859Z,13.90
2017-07-20T08:14:51.604Z,13.30
2017-07-20T08:17:20.131Z,14.90
2017-07-20T08:19:47.867Z,14.90
2017-07-20T08:22:15.690Z,15.40
2017-07-20T08:24:43.463Z,16.40
2017-07-20T08:27:11.975Z,19.70
2017-07-20T08:29:39.748Z,19.70
2017-07-20T08:32:07.498Z,21.20
2017-07-20T08:34:35.295Z,22.50
2017-07-20T08:37:03.088Z,23.10
2017-07-20T08:39:31.595Z,25.00
2017-07-20T08:41:59.380Z,25.00
2017-07-20T08:44:27.123Z,26.20
2017-07-20T08:46:55.623Z,26.70
2017-07-20T08:49:23.368Z,28.00
2017-07-20T08:51:51.112Z,29.00
2017-07-20T08:54:18.890Z,29.90
2017-07-20T08:56:46.636Z,30.70
2017-07-20T08:59:14.451Z,31.50
2017-07-20T09:01:42.199Z,32.10
2017-07-20T09:04:09.976Z,32.30
2017-07-20T09:06:37.762Z,32.90
2017-07-20T09:09:06.276Z,35.00
2017-07-20T09:11:34.093Z,34.90
2017-07-20T09:14:02.608Z,36.40
2017-07-20T09:16:30.370Z,36.30
2017-07-20T09:18:58.151Z,36.80
2017-07-20T09:21:25.907Z,37.40
2017-07-20T09:23:53.718Z,36.40
2017-07-20T09:26:22.233Z,35.90
2017-07-20T09:28:49.977Z,35.90
2017-07-20T09:31:18.524Z,36.30
2017-07-20T09:33:46.271Z,36.30
2017-07-20T09:36:14.068Z,37.30
2017-07-20T09:38:42.588Z,38.30
2017-07-20T09:41:10.340Z,38.30
2017-07-20T09:43:38.137Z,39.70
2017-07-20T09:46:05.882Z,39.60
2017-07-20T09:48:33.663Z,41.10
2017-07-20T09:51:01.412Z,42.10
2017-07-20T09:53:29.225Z,43.50
2017-07-20T09:55:57.753Z,47.90
2017-07-20T09:58:25.491Z,47.80
2017-07-20T10:00:53.284Z,48.80
2017-07-20T10:03:21.035Z,49.60
2017-07-20T10:05:48.833Z,50.40
2017-07-20T10:08:16.575Z,52.20
2017-07-20T10:10:44.320Z,52.60
2017-07-20T10:13:12.096Z,55.20
2017-07-20T10:15:39.843Z,55.10
2017-07-20T10:18:07.649Z,53.90
2017-07-20T10:20:36.159Z,56.10
2017-07-20T10:23:03.904Z,56.00
2017-07-20T10:25:31.688Z,56.90
2017-07-20T10:27:59.431Z,57.90
2017-07-20T10:30:27.229Z,60.10
2017-07-20T10:32:54.972Z,61.60
2017-07-20T10:35:22.720Z,62.30
2017-07-20T10:37:50.509Z,62.00
2017-07-20T10:40:18.253Z,61.70
2017-07-20T10:42:46.052Z,59.90
2017-07-20T10:45:13.802Z,59.20
2017-07-20T10:47:41.548Z,60.80
2017-07-20T10:50:09.331Z,59.90
2017-07-20T10:52:37.073Z,60.80
2017-07-20T10:55:04.879Z,62.00
2017-07-20T10:57:32.634Z,60.80
2017-07-20T11:00:00.380Z,61.80
2017-07-20T11:02:28.172Z,60.80
2017-07-20T11:04:56.687Z,60.70
2017-07-20T11:07:24.487Z,59.90
2017-07-20T11:09:52.226Z,58.80
2017-07-20T11:12:19.984Z,57.10
2017-07-20T11:14:47.763Z,55.80
2017-07-20T11:17:15.513Z,55.40
2017-07-20T11:19:43.322Z,55.20
2017-07-20T11:22:11.836Z,52.60
2017-07-20T11:24:39.596Z,52.40
2017-07-20T11:27:07.376Z,51.40
2017-07-20T11:29:35.115Z,48.30
2017-07-20T11:32:02.919Z,47.80
2017-07-20T11:34:30.660Z,45.40
2017-07-20T11:36:58.399Z,45.00
2017-07-20T11:39:26.180Z,44.10
2017-07-20T11:41:53.925Z,43.10
2017-07-20T11:44:21.738Z,41.50
2017-07-20T11:46:49.482Z,38.40
2017-07-20T11:49:17.231Z,38.90
2017-07-20T11:51:45.033Z,39.40
2017-07-20T11:54:12.785Z,39.90
2017-07-20T11:56:40.623Z,40.10
2017-07-20T11:59:08.395Z,38.30
2017-07-20T12:01:36.160Z,37.70
2017-07-20T12:04:03.947Z,37.10
2017-07-20T12:06:32.469Z,37.90
2017-07-20T12:09:00.283Z,38.10
2017-07-20T12:11:28.032Z,37.60
2017-07-20T12:13:55.788Z,37.70
2017-07-20T12:16:23.571Z,38.20
2017-07-20T12:18:52.079Z,39.40
2017-07-20T12:21:20.194Z,39.30
2017-07-20T12:23:47.939Z,41.20
2017-07-20T12:26:15.687Z,40.90
2017-07-20T12:28:43.464Z,41.50
2017-07-20T12:31:11.205Z,44.00
2017-07-20T12:33:39.018Z,45.20
2017-07-20T12:36:06.761Z,47.40
2017-07-20T12:38:34.565Z,46.40
2017-07-20T12:41:03.104Z,45.00
2017-07-20T12:43:30.851Z,45.00
2017-07-20T12:45:58.648Z,42.80
2017-07-20T12:48:26.392Z,42.20
2017-07-20T12:50:54.131Z,40.40
2017-07-20T12:53:21.907Z,40.80
2017-07-20T12:55:49.660Z,41.20
2017-07-20T12:58:17.463Z,40.60
2017-07-20T13:00:45.978Z,40.20
2017-07-20T13:03:13.733Z,40.20
2017-07-20T13:05:41.524Z,39.60
2017-07-20T13:08:09.291Z,39.10
2017-07-20T13:10:37.123Z,38.80
2017-07-20T13:13:04.884Z,37.60
2017-07-20T13:15:32.660Z,37.20
2017-07-20T13:18:00.464Z,37.40
2017-07-20T13:20:28.231Z,37.10
2017-07-20T13:22:56.822Z,36.50
2017-07-20T13:25:25.364Z,37.10
2017-07-20T13:27:53.131Z,37.10
2017-07-20T13:30:20.928Z,38.00
2017-07-20T13:32:49.488Z,37.60
2017-07-20T13:35:17.321Z,37.60
2017-07-20T13:37:45.101Z,37.70
2017-07-20T13:40:12.878Z,37.60
2017-07-20T13:42:40.687Z,39.10
2017-07-20T13:45:08.470Z,39.60
2017-07-20T13:47:36.302Z,39.20
2017-07-20T13:50:04.138Z,39.60
2017-07-20T13:52:32.671Z,38.40
2017-07-20T13:55:00.475Z,38.30
2017-07-20T13:57:28.285Z,37.70
2017-07-20T13:59:56.106Z,35.20
2017-07-20T14:02:24.626Z,35.40
2017-07-20T14:04:52.374Z,35.40
2017-07-20T14:07:20.158Z,34.20
2017-07-20T14:09:47.906Z,33.50
2017-07-20T14:12:15.725Z,33.50
2017-07-20T14:14:43.481Z,34.00
2017-07-20T14:17:11.235Z,34.70
2017-07-20T14:19:39.022Z,34.50
2017-07-20T14:22:07.581Z,35.60
2017-07-20T14:24:35.390Z,35.60
2017-07-20T14:27:03.147Z,33.80
2017-07-20T14:29:30.905Z,33.60
2017-07-20T14:31:58.691Z,33.40
2017-07-20T14:34:26.448Z,32.20
2017-07-20T14:36:54.282Z,32.50
2017-07-20T14:39:22.040Z,33.10
2017-07-20T14:41:49.794Z,33.80
2017-07-20T14:44:18.363Z,35.30
2017-07-20T14:46:46.182Z,35.30
2017-07-20T14:49:13.993Z,36.00
2017-07-20T14:51:42.523Z,36.90
2017-07-20T14:54:10.282Z,36.80
2017-07-20T14:56:38.077Z,36.70
2017-07-20T14:59:05.829Z,35.70
2017-07-20T15:01:33.650Z,36.70
2017-07-20T15:04:01.405Z,36.20
2017-07-20T15:06:29.192Z,36.50
2017-07-20T15:08:56.981Z,37.60
2017-07-20T15:11:24.732Z,37.10
2017-07-20T15:13:52.557Z,38.60
2017-07-20T15:16:20.314Z,37.90
2017-07-20T15:18:48.086Z,37.10
2017-07-20T15:21:15.878Z,37.10
2017-07-20T15:23:43.638Z,37.10
2017-07-20T15:26:11.452Z,37.10
2017-07-20T15:28:39.974Z,38.30
2017-07-20T15:31:07.730Z,38.30
2017-07-20T15:33:35.562Z,39.50
2017-07-20T15:36:03.321Z,39.20
2017-07-20T15:38:31.137Z,40.60
2017-07-20T15:40:58.910Z,41.10
2017-07-20T15:43:26.710Z,40.70
2017-07-20T15:45:54.498Z,41.10
2017-07-20T15:48:22.253Z,41.50
2017-07-20T15:50:50.074Z,42.50
2017-07-20T15:53:18.597Z,44.60
2017-07-20T15:55:46.355Z,44.00
2017-07-20T15:58:14.138Z,45.30
2017-07-20T16:00:41.902Z,45.00
2017-07-20T16:03:09.732Z,44.30
2017-07-20T16:05:37.500Z,45.30
2017-07-20T16:08:05.266Z,44.80
2017-07-20T16:10:33.066Z,45.40
2017-07-20T16:13:00.823Z,44.60
2017-07-20T16:15:28.649Z,44.20
2017-07-20T16:17:56.406Z,44.90
2017-07-20T16:20:24.167Z,44.60
2017-07-20T16:22:51.980Z,44.40
2017-07-20T16:25:19.747Z,45.70
2017-07-20T16:27:47.570Z,46.00
2017-07-20T16:30:15.331Z,44.70
2017-07-20T16:32:43.136Z,45.20
2017-07-20T16:35:10.926Z,46.10
2017-07-20T16:37:38.684Z,46.10
2017-07-20T16:40:07.278Z,45.20
2017-07-20T16:42:35.050Z,45.20
2017-07-20T16:45:02.816Z,46.20
2017-07-20T16:47:30.614Z,46.60
2017-07-20T16:49:58.391Z,47.80
2017-07-20T16:52:26.212Z,48.20
2017-07-20T16:54:53.974Z,48.10
2017-07-20T16:57:21.729Z,48.90
2017-07-20T16:59:49.515Z,49.80
2017-07-20T17:02:17.275Z,49.70
2017-07-20T17:04:45.098Z,49.10
2017-07-20T17:07:12.877Z,48.80
2017-07-20T17:09:40.630Z,47.30
2017-07-20T17:12:08.423Z,47.80
2017-07-20T17:14:36.191Z,49.30
2017-07-20T17:17:04.018Z,48.70
2017-07-20T17:19:31.778Z,49.50
2017-07-20T17:21:59.534Z,49.70
2017-07-20T17:24:27.330Z,51.10
2017-07-20T17:26:55.091Z,50.50
2017-07-20T17:29:22.926Z,51.20
2017-07-20T17:31:50.686Z,51.40
2017-07-20T17:34:18.482Z,52.00
2017-07-20T17:36:46.276Z,52.10
2017-07-20T17:39:14.083Z,52.70
2017-07-20T17:41:42.090Z,52.90
2017-07-20T17:44:09.874Z,53.00
2017-07-20T17:46:38.404Z,53.00
2017-07-20T17:49:06.201Z,52.90
2017-07-20T17:51:33.970Z,53.10
2017-07-20T17:54:02.551Z,53.80
2017-07-20T17:56:30.315Z,53.80
2017-07-20T17:58:58.080Z,54.10
2017-07-20T18:01:26.634Z,55.00
2017-07-20T18:03:54.423Z,55.00
2017-07-20T18:06:22.247Z,55.20
2017-07-20T18:08:50.006Z,56.50
2017-07-20T18:11:17.786Z,56.50
2017-07-20T18:13:45.579Z,57.40
2017-07-20T18:16:13.341Z,58.00
2017-07-20T18:18:41.168Z,58.70
2017-07-20T18:21:08.930Z,59.10
2017-07-20T18:23:36.690Z,60.20
2017-07-20T18:26:04.514Z,60.80
2017-07-20T18:28:32.290Z,59.80
2017-07-20T18:31:00.111Z,61.60
2017-07-20T18:33:28.649Z,62.40
2017-07-20T18:35:56.414Z,62.40
2017-07-20T18:38:24.202Z,63.60
2017-07-20T18:40:52.783Z,64.30
2017-07-20T18:43:21.379Z,65.20
2017-07-20T18:45:49.175Z,65.20
2017-07-20T18:48:16.940Z,65.90
2017-07-20T18:50:44.730Z,62.90
2017-07-20T18:53:12.491Z,63.00
2017-07-20T18:55:40.317Z,61.90
2017-07-20T18:58:08.073Z,62.50
2017-07-20T19:00:35.832Z,59.90
2017-07-20T19:03:03.622Z,59.80
2017-07-20T19:05:31.382Z,60.60
2017-07-20T19:07:59.205Z,60.80
2017-07-20T19:10:26.970Z,61.10
2017-07-20T19:12:54.737Z,61.30
2017-07-20T19:15:22.525Z,61.40
2017-07-20T19:17:50.285Z,61.10
2017-07-20T19:20:18.102Z,60.20
2017-07-20T19:22:46.617Z,61.20
2017-07-20T19:25:14.366Z,61.20
2017-07-20T19:27:42.157Z,61.20
2017-07-20T19:30:09.914Z,61.20
2017-07-20T19:32:37.725Z,61.30
2017-07-20T19:35:06.255Z,62.80
2017-07-20T19:37:34.029Z,62.80
2017-07-20T19:40:01.822Z,62.80
2017-07-20T19:42:30.351Z,63.80
2017-07-20T19:44:58.173Z,63.50
2017-07-20T19:47:26.746Z,64.90
2017-07-20T19:49:55.266Z,65.40
2017-07-20T19:52:23.056Z,65.30
2017-07-20T19:54:50.814Z,66.20
2017-07-20T19:57:18.653Z,67.50
2017-07-20T19:59:46.409Z,69.00
2017-07-20T20:02:14.171Z,69.10
2017-07-20T20:04:41.958Z,70.00
2017-07-20T20:07:09.717Z,70.60
2017-07-20T20:09:37.538Z,71.60
2017-07-20T20:12:05.294Z,72.50
2017-07-20T20:14:33.053Z,73.40
2017-07-20T20:17:01.662Z,76.10
2017-07-20T20:19:29.424Z,76.00
2017-07-20T20:21:57.246Z,77.40
2017-07-20T20:24:25.777Z,78.70
2017-07-20T20:26:53.557Z,78.70
2017-07-20T20:29:21.343Z,79.00
2017-07-20T20:31:49.873Z,80.70
2017-07-20T20:34:17.698Z,80.20
2017-07-20T20:36:45.466Z,81.10
2017-07-20T20:39:13.990Z,83.50
2017-07-20T20:41:41.852Z,83.50
2017-07-20T20:44:09.614Z,85.40
2017-07-20T20:46:37.433Z,86.80
2017-07-20T20:49:05.962Z,87.80
2017-07-20T20:51:33.727Z,87.80
2017-07-20T20:54:01.521Z,89.10
2017-07-20T20:56:30.052Z,90.10
2017-07-20T20:58:57.872Z,90.10
2017-07-20T21:01:26.415Z,90.90
2017-07-20T21:03:54.174Z,91.00
2017-07-20T21:06:22.277Z,91.20
2017-07-20T21:08:50.808Z,92.40
2017-07-20T21:11:18.624Z,92.40
2017-07-20T21:13:47.158Z,92.40
2017-07-20T21:16:14.922Z,92.40
2017-07-20T21:18:42.720Z,92.70
2017-07-20T21:21:11.247Z,93.40
2017-07-20T21:23:39.065Z,93.30
2017-07-20T21:26:07.591Z,94.10
2017-07-20T21:28:35.357Z,94.10
2017-07-20T21:31:03.152Z,94.00
2017-07-20T21:33:30.917Z,94.10
2017-07-20T21:35:58.861Z,94.40
2017-07-20T21:38:26.625Z,94.60
2017-07-20T21:40:54.385Z,94.70
2017-07-20T21:43:22.174Z,94.80
2017-07-20T21:45:49.930Z,95.10
2017-07-20T21:48:17.760Z,95.30
2017-07-20T21:50:45.518Z,95.60
2017-07-20T21:53:13.285Z,95.70
2017-07-20T21:55:41.076Z,95.90
2017-07-20T21:58:08.838Z,95.90
2017-07-20T22:00:36.658Z,96.10
2017-07-20T22:03:04.414Z,96.30
2017-07-20T22:05:32.174Z,96.40
2017-07-20T22:07:59.970Z,96.50
2017-07-20T22:10:27.730Z,96.50
2017-07-20T22:12:55.546Z,96.60
2017-07-20T22:15:23.324Z,96.50
2017-07-20T22:17:51.081Z,96.40
2017-07-20T22:20:19.782Z,95.90
2017-07-20T22:22:48.117Z,95.80
2017-07-20T22:25:17.330Z,95.40
2017-07-20T22:27:45.094Z,95.40
2017-07-20T22:30:12.842Z,95.30
2017-07-20T22:32:40.630Z,95.10
2017-07-20T22:35:08.385Z,94.80
2017-07-20T22:37:36.231Z,94.80
2017-07-20T22:40:03.978Z,94.80
2017-07-20T22:42:32.498Z,95.00
2017-07-20T22:45:00.285Z,95.00
2017-07-20T22:47:28.032Z,94.90
2017-07-20T22:49:55.845Z,95.10
2017-07-20T22:52:23.604Z,95.20
2017-07-20T22:54:51.391Z,95.20
2017-07-20T22:57:19.203Z,94.90
2017-07-20T22:59:46.955Z,95.40
2017-07-20T23:02:14.762Z,95.50
2017-07-20T23:04:42.520Z,95.70
2017-07-20T23:07:10.273Z,95.70
2017-07-20T23:09:39.003Z,96.00
2017-07-20T23:12:06.758Z,96.00
2017-07-20T23:14:34.578Z,96.10
2017-07-20T23:17:03.098Z,96.60
2017-07-20T23:19:30.858Z,96.50
2017-07-20T23:21:58.640Z,96.80
2017-07-20T23:24:26.393Z,96.90
2017-07-20T23:26:54.200Z,97.00
2017-07-20T23:29:22.713Z,97.20
2017-07-20T23:31:50.465Z,97.20
2017-07-20T23:34:18.278Z,97.20
2017-07-20T23:36:46.051Z,97.50
2017-07-20T23:39:13.886Z,97.50
2017-07-20T23:41:41.679Z,97.70
2017-07-20T23:44:09.497Z,97.70
2017-07-20T23:46:37.294Z,97.70
2017-07-20T23:49:05.046Z,97.50
2017-07-20T23:51:32.865Z,97.50
2017-07-20T23:54:00.618Z,97.50
2017-07-20T23:56:28.381Z,97.40
2017-07-20T23:58:56.163Z,97.30
